KVKS/VKS METAR and TAF weather

Enter ICAO airport designator
Station Type Date Time Source
KVKS METAR 2022/05/24 12:15 UTC NOAA

KVKS 241215Z AUTO VRB03KT 8SM BKN017 23/23 A2991 RMK A01


Station Type Date Time Source
KVKS Decoded METAR 2022/05/24 12:15 UTC NOAA

Vicksburg Municipal, MS, United States (KVKS) 32-14N 090-56W
May 24, 2022 - 08:15 AM EDT / 2022.05.24 1215 UTC
Wind: Variable at 3 MPH (3 KT):0
Visibility: 8 mile(s):0
Sky conditions: mostly cloudy
Temperature: 73 F (23 C)
Dew Point: 73 F (23 C)
Relative Humidity: 100%
Pressure (altimeter): 29.91 in. Hg (1012 hPa)
ob: KVKS 241215Z AUTO VRB03KT 8SM BKN017 23/23 A2991 RMK A01
cycle: 12

Station Type Date Time Source
KVKS TAF UTC NOAA

Error!

Example: see airport list